Time;durP1;ratioP1;P1;durP2;ratioP2;P2;SDS_P1;SDS_P2;PMS_P1;PMS_P2;Temp;Humidity;BMP_temperature;BMP_pressure;BME280_temperature;BME280_humidity;BME280_pressure;Samples;Min_cycle;Max_cycle;Signal;HPM_P1;HPM_P2
2023/03/25 00:00:52;;;;;;;0.10;0.10;;;;;;;15.45;60.37;100079.59;5049800;28;20041;-69
2023/03/25 00:03:18;;;;;;;0.25;0.25;;;;;;;14.81;62.85;100074.81;5036424;28;20029;-69
2023/03/25 00:05:43;;;;;;;0.32;0.32;;;;;;;15.57;61.31;100071.94;5042691;28;20033;-69
2023/03/25 00:08:08;;;;;;;0.20;0.20;;;;;;;15.23;61.37;100070.97;5043063;28;20118;-70
2023/03/25 00:10:34;;;;;;;0.35;0.35;;;;;;;15.66;60.46;100068.38;5035840;28;20163;-69
2023/03/25 00:13:03;;;;;;;0.20;0.20;;;;;;;15.50;60.94;100076.88;5048167;28;20443;-70
2023/03/25 00:15:32;;;;;;;0.20;0.20;;;;;;;15.13;60.85;100074.50;5037874;28;20029;-70
2023/03/25 00:17:58;;;;;;;0.20;0.20;;;;;;;15.63;60.09;100074.38;5040620;28;20040;-71
2023/03/25 00:20:23;;;;;;;0.30;0.30;;;;;;;15.83;58.80;100073.47;5044663;28;20462;-70
2023/03/25 00:22:49;;;;;;;0.30;0.30;;;;;;;15.89;58.23;100063.44;5034583;28;20068;-70
2023/03/25 00:25:15;;;;;;;0.20;0.20;;;;;;;15.28;60.13;100069.03;5046812;28;20034;-70
2023/03/25 00:27:43;;;;;;;0.40;0.40;;;;;;;15.82;58.30;100066.47;5039048;28;20090;-70
2023/03/25 00:30:09;;;;;;;0.20;0.20;;;;;;;14.69;60.93;100062.63;5021068;28;20041;-69
2023/03/25 00:32:34;;;;;;;0.20;0.20;;;;;;;15.59;58.76;100069.78;5046561;28;20519;-69
2023/03/25 00:34:59;;;;;;;0.30;0.30;;;;;;;15.38;58.69;100073.63;5033685;28;20040;-69
2023/03/25 00:37:26;;;;;;;0.20;0.20;;;;;;;15.11;58.77;100065.84;5045542;28;20033;-70
2023/03/25 00:39:51;;;;;;;0.20;0.20;;;;;;;15.33;58.42;100071.72;5040270;28;20055;-70
2023/03/25 00:42:24;;;;;;;0.30;0.30;;;;;;;15.46;57.56;100090.16;5051125;28;20056;-70
2023/03/25 00:44:50;;;;;;;0.20;0.20;;;;;;;14.82;59.39;100062.88;5033746;28;20041;-70
2023/03/25 00:47:17;;;;;;;0.30;0.30;;;;;;;15.24;58.20;100059.03;5045897;28;20068;-69
2023/03/25 00:49:43;;;;;;;0.17;0.17;;;;;;;15.36;57.58;100057.66;5031036;28;20070;-70
2023/03/25 00:52:08;;;;;;;0.30;0.30;;;;;;;15.67;56.10;100053.78;5042963;28;20033;-70
2023/03/25 00:54:33;;;;;;;0.10;0.10;;;;;;;15.51;56.42;100065.75;5035533;28;20037;-70
2023/03/25 00:56:59;;;;;;;0.20;0.20;;;;;;;15.51;56.14;100054.91;5047001;28;20198;-70
2023/03/25 00:59:25;;;;;;;0.20;0.20;;;;;;;15.03;57.76;100066.41;5035893;28;20187;-70
2023/03/25 01:01:52;;;;;;;0.30;0.30;;;;;;;15.12;57.68;100063.94;5040649;28;20088;-72
2023/03/25 01:04:18;;;;;;;0.20;0.20;;;;;;;15.29;56.41;100072.56;5031140;28;20049;-69
2023/03/25 01:06:44;;;;;;;0.20;0.20;;;;;;;14.74;60.00;100073.47;5030294;28;20069;-70
2023/03/25 01:09:13;;;;;;;0.10;0.10;;;;;;;14.16;64.13;100082.81;5030360;28;20060;-70
2023/03/25 01:11:40;;;;;;;0.20;0.20;;;;;;;14.01;66.05;100074.69;5030559;28;20048;-70
2023/03/25 01:14:10;;;;;;;0.20;0.20;;;;;;;14.16;66.78;100077.41;5030550;28;20132;-70
2023/03/25 01:16:36;;;;;;;0.20;0.20;;;;;;;14.69;64.92;100073.44;5030401;28;20108;-71
2023/03/25 01:19:01;;;;;;;0.35;0.35;;;;;;;14.57;66.20;100075.59;5030702;28;20029;-69
2023/03/25 01:21:27;;;;;;;0.20;0.20;;;;;;;14.34;66.85;100084.22;5030057;28;20096;-71
2023/03/25 01:23:53;;;;;;;0.30;0.30;;;;;;;14.46;67.31;100076.69;5030220;28;20585;-71
2023/03/25 01:26:18;;;;;;;0.25;0.25;;;;;;;14.08;67.90;100076.06;5030075;28;20420;-70
2023/03/25 01:28:44;;;;;;;0.30;0.30;;;;;;;14.49;66.88;100076.94;5029870;28;20030;-71
2023/03/25 01:31:13;;;;;;;0.50;0.50;;;;;;;14.52;67.62;100075.59;5030350;28;20052;-72
2023/03/25 01:33:39;;;;;;;0.20;0.20;;;;;;;14.15;68.05;100067.69;5011699;28;20176;-70
2023/03/25 01:36:08;;;;;;;0.20;0.20;;;;;;;13.84;69.25;100080.28;5029891;28;20045;-69
2023/03/25 01:38:35;;;;;;;0.40;0.40;;;;;;;14.38;68.12;100077.22;5029784;28;20120;-70
2023/03/25 01:41:02;;;;;;;0.30;0.30;;;;;;;13.92;69.29;100081.66;5029922;28;20030;-71
2023/03/25 01:43:27;;;;;;;0.30;0.30;;;;;;;14.13;68.00;100070.66;5030529;28;20112;-71
2023/03/25 01:45:53;;;;;;;0.30;0.30;;;;;;;14.49;67.68;100073.44;5011448;28;20398;-70
2023/03/25 01:48:26;;;;;;;0.30;0.30;;;;;;;14.73;66.29;100061.81;5026807;28;20091;-70
2023/03/25 01:50:57;;;;;;;0.20;0.20;;;;;;;14.84;65.59;100059.91;5033525;28;20041;-70
2023/03/25 01:53:23;;;;;;;0.30;0.30;;;;;;;14.34;67.00;100063.44;5033471;28;20575;-71
2023/03/25 01:55:51;;;;;;;0.20;0.20;;;;;;;14.57;67.29;100059.38;5033596;28;20033;-70
2023/03/25 01:58:19;;;;;;;0.30;0.30;;;;;;;14.42;66.59;100060.19;5033463;28;20374;-70
2023/03/25 02:00:49;;;;;;;0.30;0.30;;;;;;;14.10;68.12;100056.88;5033111;28;20030;-70
2023/03/25 02:03:16;;;;;;;0.32;0.32;;;;;;;14.44;66.45;100052.63;5051940;28;20134;-70
2023/03/25 02:06:02;;;;;;;0.40;0.40;;;;;;;14.69;65.58;100051.81;5053332;28;20033;-70
2023/03/25 02:08:31;;;;;;;0.40;0.40;;;;;;;13.97;67.23;100049.28;5053351;28;20040;-71
2023/03/25 02:10:57;;;;;;;0.40;0.40;;;;;;;14.80;65.16;100048.03;5053056;28;20037;-71
2023/03/25 02:13:24;;;;;;;0.20;0.20;;;;;;;14.32;65.27;100057.47;5053223;28;20452;-69
2023/03/25 02:16:01;;;;;;;0.40;0.40;;;;;;;14.44;64.47;100060.75;5053508;28;20057;-71
2023/03/25 02:18:42;;;;;;;0.20;0.20;;;;;;;14.02;66.25;100049.28;5052689;28;20037;-70
2023/03/25 02:21:26;;;;;;;0.20;0.20;;;;;;;14.34;64.86;100049.91;5049964;28;20044;-71
2023/03/25 02:24:22;;;;;;;0.20;0.20;;;;;;;14.36;65.25;100050.47;5052855;28;20076;-71
2023/03/25 02:26:59;;;;;;;0.30;0.30;;;;;;;14.15;64.58;100047.97;5052624;28;20041;-72
2023/03/25 02:29:49;;;;;;;0.20;0.20;;;;;;;14.56;64.33;100047.78;5052587;28;20033;-71
2023/03/25 02:32:43;;;;;;;0.20;0.20;;;;;;;14.80;63.77;100048.81;5052714;28;20064;-70
2023/03/25 02:35:40;;;;;;;0.20;0.20;;;;;;;14.83;63.42;100053.72;5046308;28;20489;-70
2023/03/25 02:38:18;;;;;;;0.22;0.22;;;;;;;14.18;65.46;100050.13;5052096;28;20029;-71
2023/03/25 02:41:21;;;;;;;0.30;0.30;;;;;;;14.60;64.45;100043.41;5052049;28;20033;-69
2023/03/25 02:44:01;;;;;;;0.30;0.30;;;;;;;14.31;65.27;100055.84;5051682;28;20064;-70
2023/03/25 02:46:30;;;;;;;0.20;0.20;;;;;;;14.07;65.80;100050.09;5053027;28;20025;-70
2023/03/25 02:49:02;;;;;;;0.30;0.30;;;;;;;14.10;65.82;100051.47;5051670;28;20045;-70
2023/03/25 02:51:32;;;;;;;0.30;0.30;;;;;;;14.89;62.67;100052.63;5052208;28;20045;-70
2023/03/25 02:54:04;;;;;;;0.35;0.35;;;;;;;14.34;64.24;100043.69;5052043;28;20455;-69
2023/03/25 02:56:31;;;;;;;0.20;0.20;;;;;;;14.19;65.28;100033.63;5052568;28;20033;-70
2023/03/25 02:58:58;;;;;;;0.30;0.30;;;;;;;14.40;64.49;100031.81;5051602;28;20029;-69
2023/03/25 03:01:25;;;;;;;0.32;0.32;;;;;;;14.64;63.79;100043.72;5052410;28;20048;-70
2023/03/25 03:03:54;;;;;;;0.40;0.40;;;;;;;14.53;64.02;100036.66;5051997;28;20071;-68
2023/03/25 03:06:21;;;;;;;0.30;0.30;;;;;;;13.78;66.99;100031.91;5052413;28;20079;-70
2023/03/25 03:08:49;;;;;;;0.30;0.30;;;;;;;14.00;65.62;100033.34;5051915;28;20071;-69
2023/03/25 03:11:21;;;;;;;0.20;0.20;;;;;;;14.52;64.62;100024.25;5051939;28;20052;-69
2023/03/25 03:13:46;;;;;;;0.32;0.32;;;;;;;14.71;63.86;100033.41;5051733;28;20104;-70
2023/03/25 03:16:30;;;;;;;0.30;0.30;;;;;;;14.60;64.49;100029.09;5052251;28;20128;-70
2023/03/25 03:19:01;;;;;;;0.20;0.20;;;;;;;13.92;66.99;100033.88;5051594;28;20044;-70
2023/03/25 03:21:55;;;;;;;0.30;0.30;;;;;;;14.91;63.86;100030.69;5037939;28;20083;-70
2023/03/25 03:24:30;;;;;;;0.30;0.30;;;;;;;14.54;64.60;100036.41;5040193;28;20044;-71
2023/03/25 03:27:13;;;;;;;0.20;0.20;;;;;;;13.96;66.92;100029.56;5051327;28;20033;-71
2023/03/25 03:29:47;;;;;;;0.20;0.20;;;;;;;14.41;66.02;100017.19;5050716;28;20029;-71
2023/03/25 03:32:17;;;;;;;0.20;0.20;;;;;;;14.60;64.46;100029.09;5051750;28;20123;-71
2023/03/25 03:34:55;;;;;;;0.30;0.30;;;;;;;14.36;66.62;100033.41;5050778;28;20028;-68
2023/03/25 03:37:31;;;;;;;0.20;0.20;;;;;;;14.32;66.23;100035.84;5051080;28;20032;-70
2023/03/25 03:39:57;;;;;;;0.20;0.20;;;;;;;13.91;67.52;100039.53;5051224;28;20033;-70
2023/03/25 03:42:36;;;;;;;0.20;0.20;;;;;;;14.65;65.46;100035.31;5050912;28;20057;-70
2023/03/25 03:45:28;;;;;;;0.40;0.40;;;;;;;14.46;65.17;100042.34;5051981;28;20424;-69
2023/03/25 03:47:57;;;;;;;0.30;0.30;;;;;;;14.77;64.80;100032.34;5050662;28;20048;-70
2023/03/25 03:50:27;;;;;;;0.30;0.30;;;;;;;14.56;65.07;100045.06;5051233;28;20278;-70
2023/03/25 03:53:01;;;;;;;0.20;0.20;;;;;;;14.44;65.64;100032.88;5050572;28;20028;-69
2023/03/25 03:55:36;;;;;;;0.10;0.10;;;;;;;14.47;65.81;100033.16;5051746;28;20025;-71
2023/03/25 03:58:08;;;;;;;0.20;0.20;;;;;;;14.61;65.24;100033.41;5051328;28;20052;-70
2023/03/25 04:00:48;;;;;;;0.20;0.20;;;;;;;14.67;65.04;100032.34;5050716;28;20044;-71
2023/03/25 04:03:23;;;;;;;0.10;0.10;;;;;;;14.46;64.59;100030.72;5035380;28;20388;-69
2023/03/25 04:05:54;;;;;;;0.38;0.38;;;;;;;14.98;63.81;100020.38;5050305;28;20167;-70
2023/03/25 04:08:32;;;;;;;0.20;0.20;;;;;;;14.53;65.10;100025.84;5050338;28;20040;-70
2023/03/25 04:11:04;;;;;;;0.20;0.20;;;;;;;14.76;64.43;100025.31;5049566;28;20452;-69
2023/03/25 04:13:34;;;;;;;0.30;0.30;;;;;;;14.74;64.69;100022.88;5051278;28;20024;-70
2023/03/25 04:15:59;;;;;;;0.10;0.10;;;;;;;14.85;63.72;100027.19;5050861;28;20288;-71
2023/03/25 04:18:27;;;;;;;0.20;0.20;;;;;;;14.63;64.50;100028.56;5050100;28;20132;-70
2023/03/25 04:20:55;;;;;;;0.30;0.30;;;;;;;14.42;65.41;100018.84;5049798;28;20033;-69
2023/03/25 04:23:21;;;;;;;0.20;0.20;;;;;;;14.20;66.85;100027.16;5050627;28;20041;-69
2023/03/25 04:25:51;;;;;;;0.30;0.30;;;;;;;14.71;65.27;100026.13;5050584;28;20027;-71
2023/03/25 04:28:18;;;;;;;0.30;0.30;;;;;;;15.64;62.03;100021.03;5033107;28;20025;-70
2023/03/25 04:30:54;;;;;;;0.20;0.20;;;;;;;14.33;65.87;100013.13;5049615;28;20103;-70
2023/03/25 04:33:21;;;;;;;0.20;0.20;;;;;;;14.81;64.89;100019.88;5050630;28;20056;-70
2023/03/25 04:35:49;;;;;;;0.30;0.30;;;;;;;14.24;66.56;100022.03;5050170;28;20076;-69
2023/03/25 04:38:15;;;;;;;0.20;0.20;;;;;;;14.72;64.63;100014.22;5049767;28;20037;-70
2023/03/25 04:40:45;;;;;;;0.30;0.30;;;;;;;15.36;62.71;100011.63;5031653;28;20370;-69
2023/03/25 04:43:11;;;;;;;0.20;0.20;;;;;;;14.99;63.87;100008.50;5034817;28;20036;-70
2023/03/25 04:45:37;;;;;;;0.40;0.40;;;;;;;15.10;63.97;100007.38;5046717;28;20123;-70
2023/03/25 04:48:04;;;;;;;0.30;0.30;;;;;;;14.85;64.65;100002.03;5049824;28;20055;-71
2023/03/25 04:50:30;;;;;;;0.20;0.20;;;;;;;15.23;63.41;100014.13;5050299;28;20431;-70
2023/03/25 04:52:57;;;;;;;0.28;0.28;;;;;;;14.49;65.72;100011.25;5050185;28;20044;-70
2023/03/25 04:55:24;;;;;;;0.30;0.30;;;;;;;14.66;65.23;100009.09;5051402;28;20488;-70
2023/03/25 04:57:51;;;;;;;0.30;0.30;;;;;;;13.96;67.30;100010.66;5050215;28;20063;-69
2023/03/25 05:00:21;;;;;;;0.22;0.22;;;;;;;14.04;68.43;99995.78;5050175;28;20033;-70
2023/03/25 05:02:48;;;;;;;0.25;0.25;;;;;;;13.52;69.61;100008.63;5049552;28;20051;-69
2023/03/25 05:05:19;;;;;;;0.30;0.30;;;;;;;14.11;68.28;100016.06;5049960;28;20120;-71
2023/03/25 05:07:48;;;;;;;0.20;0.20;;;;;;;13.19;70.76;100026.00;5049940;28;20481;-70
2023/03/25 05:10:16;;;;;;;0.30;0.30;;;;;;;13.94;68.80;100002.00;5050651;28;20079;-71
2023/03/25 05:12:41;;;;;;;0.40;0.40;;;;;;;13.76;68.43;99998.97;5049842;28;20056;-70
2023/03/25 05:15:08;;;;;;;0.30;0.30;;;;;;;13.36;69.93;100013.16;5033446;28;20051;-71
2023/03/25 05:17:34;;;;;;;0.22;0.22;;;;;;;13.56;67.98;100010.53;5050076;28;20525;-69
2023/03/25 05:19:59;;;;;;;0.22;0.22;;;;;;;13.12;69.65;100007.38;5049935;28;20039;-70
2023/03/25 05:22:24;;;;;;;0.20;0.20;;;;;;;13.74;67.25;100020.03;5053530;28;20037;-69
2023/03/25 05:24:52;;;;;;;0.30;0.30;;;;;;;13.82;67.40;100014.09;5053416;28;20033;-70
2023/03/25 05:27:19;;;;;;;0.30;0.30;;;;;;;13.88;66.99;100016.56;5053941;28;20041;-70
2023/03/25 05:29:44;;;;;;;0.20;0.20;;;;;;;14.23;64.90;100031.22;5035779;28;20558;-70
2023/03/25 05:32:12;;;;;;;0.30;0.30;;;;;;;14.03;65.76;100030.09;5046780;28;20037;-70
2023/03/25 05:34:38;;;;;;;0.13;0.13;;;;;;;14.12;65.63;100025.00;5053431;28;20370;-71
2023/03/25 05:37:04;;;;;;;0.10;0.10;;;;;;;13.95;66.64;100032.53;5053928;28;20052;-70
2023/03/25 05:39:30;;;;;;;0.20;0.20;;;;;;;13.69;66.72;100036.22;5053440;28;20048;-70
2023/03/25 05:42:01;;;;;;;0.30;0.30;;;;;;;14.05;65.85;100030.63;5054154;28;20424;-70
2023/03/25 05:44:27;;;;;;;0.30;0.30;;;;;;;13.65;67.35;100030.53;5053330;28;20033;-71
2023/03/25 05:46:52;;;;;;;0.20;0.20;;;;;;;13.91;66.15;100034.13;5055083;28;20087;-69
2023/03/25 05:49:17;;;;;;;0.20;0.20;;;;;;;13.64;67.06;100030.81;5053887;28;20028;-70
2023/03/25 05:51:43;;;;;;;0.30;0.30;;;;;;;13.41;67.36;100029.38;5053869;28;20268;-71
2023/03/25 05:54:09;;;;;;;0.20;0.20;;;;;;;13.23;68.25;100037.91;5052648;28;20068;-71
2023/03/25 05:56:35;;;;;;;0.30;0.30;;;;;;;13.78;66.67;100024.63;5053680;28;20040;-71
2023/03/25 05:59:02;;;;;;;0.30;0.30;;;;;;;13.20;69.33;100027.66;5052806;28;20060;-69
2023/03/25 06:01:28;;;;;;;0.28;0.28;;;;;;;13.56;67.51;100040.22;5053089;28;20025;-70
2023/03/25 06:03:54;;;;;;;0.30;0.30;;;;;;;13.00;69.19;100043.69;5053395;28;20037;-70
2023/03/25 06:06:19;;;;;;;0.25;0.25;;;;;;;13.74;67.46;100038.94;5052959;28;20571;-70
2023/03/25 06:08:49;;;;;;;0.20;0.20;;;;;;;13.43;67.81;100039.88;5052963;28;20342;-69
2023/03/25 06:11:16;;;;;;;0.20;0.20;;;;;;;13.78;67.03;100050.81;5045768;28;20037;-71
2023/03/25 06:13:48;;;;;;;0.30;0.30;;;;;;;13.67;67.07;100055.41;5052634;28;20051;-69
2023/03/25 06:16:17;;;;;;;0.20;0.20;;;;;;;13.65;67.64;100054.84;5053904;28;20021;-71
2023/03/25 06:18:49;;;;;;;0.20;0.20;;;;;;;13.87;66.72;100041.16;5035059;28;20041;-70
2023/03/25 06:21:17;;;;;;;0.20;0.20;;;;;;;13.44;68.55;100055.03;5053116;28;20084;-70
2023/03/25 06:23:42;;;;;;;0.40;0.40;;;;;;;13.59;68.27;100052.38;5052407;28;20098;-68
2023/03/25 06:26:07;;;;;;;0.17;0.17;;;;;;;13.94;67.98;100055.19;5052073;28;20036;-71
2023/03/25 06:28:33;;;;;;;0.20;0.20;;;;;;;13.61;68.51;100063.72;5053755;28;20033;-71
2023/03/25 06:30:58;;;;;;;0.40;0.40;;;;;;;14.05;67.09;100054.16;5052340;28;20033;-69
2023/03/25 06:33:24;;;;;;;0.30;0.30;;;;;;;13.74;69.16;100058.66;5052468;28;20033;-71
2023/03/25 06:35:52;;;;;;;0.30;0.30;;;;;;;14.74;65.40;100054.53;5052759;28;20033;-70
2023/03/25 06:38:19;;;;;;;0.32;0.32;;;;;;;14.06;65.97;100056.59;5052034;28;20061;-69
2023/03/25 06:40:46;;;;;;;0.32;0.32;;;;;;;14.33;65.19;100047.50;5051588;28;20075;-70
2023/03/25 06:43:12;;;;;;;0.30;0.30;;;;;;;14.01;66.61;100053.84;5052055;28;20064;-69
2023/03/25 06:45:37;;;;;;;0.30;0.30;;;;;;;13.91;66.47;100040.34;5053135;28;20032;-70
2023/03/25 06:48:04;;;;;;;0.40;0.40;;;;;;;14.36;65.48;100055.03;5059711;28;20029;-71
2023/03/25 06:50:30;;;;;;;0.30;0.30;;;;;;;13.96;67.39;100050.34;5061065;28;20044;-69
2023/03/25 06:52:56;;;;;;;0.25;0.25;;;;;;;13.87;67.40;100049.25;5063169;28;20060;-71
2023/03/25 06:55:21;;;;;;;0.20;0.20;;;;;;;14.22;65.87;100053.91;5064429;28;20029;-70
2023/03/25 06:57:46;;;;;;;0.30;0.30;;;;;;;15.16;63.79;100060.41;5068278;28;20119;-71
2023/03/25 07:00:12;;;;;;;0.20;0.20;;;;;;;15.10;63.79;100050.69;5068080;28;20028;-71
2023/03/25 07:02:38;;;;;;;0.20;0.20;;;;;;;14.35;65.99;100062.34;5064251;28;20040;-68
2023/03/25 07:05:04;;;;;;;0.40;0.40;;;;;;;14.52;65.10;100044.00;5059795;28;20036;-71
2023/03/25 07:07:30;;;;;;;0.17;0.17;;;;;;;14.29;66.65;100055.28;5067473;28;20087;-69
2023/03/25 07:09:55;;;;;;;0.20;0.20;;;;;;;14.13;66.67;100061.75;5067479;28;20028;-70
2023/03/25 07:12:21;;;;;;;0.47;0.47;;;;;;;14.01;67.46;100061.97;5060380;28;20029;-69
2023/03/25 07:14:54;;;;;;;0.40;0.40;;;;;;;14.05;67.94;100073.88;5049955;28;20037;-70
2023/03/25 07:17:21;;;;;;;0.30;0.30;;;;;;;13.56;68.77;100053.72;5039497;28;20462;-70
2023/03/25 07:19:47;;;;;;;0.30;0.30;;;;;;;14.17;67.98;100062.81;5046296;28;20021;-70
2023/03/25 07:22:12;;;;;;;0.28;0.28;;;;;;;13.46;68.93;100060.97;5043954;28;20023;-70
2023/03/25 07:24:38;;;;;;;0.20;0.20;;;;;;;14.30;67.88;100062.34;5048722;28;20532;-71
2023/03/25 07:27:03;;;;;;;0.30;0.30;;;;;;;13.50;69.10;100076.38;5041305;28;20095;-70
2023/03/25 07:29:28;;;;;;;0.20;0.20;;;;;;;13.85;69.05;100070.31;5047716;28;20032;-70
2023/03/25 07:31:54;;;;;;;0.20;0.20;;;;;;;13.68;69.68;100083.22;5045291;28;20396;-71
2023/03/25 07:34:19;;;;;;;0.25;0.25;;;;;;;13.55;70.12;100072.88;5046774;28;20440;-71
2023/03/25 07:36:44;;;;;;;0.47;0.47;;;;;;;13.37;69.60;100079.53;5038864;28;20255;-71
2023/03/25 07:39:10;;;;;;;0.28;0.28;;;;;;;13.66;69.01;100069.16;5050177;28;20120;-69
2023/03/25 07:41:35;;;;;;;0.30;0.30;;;;;;;14.28;66.65;100074.50;5050836;28;20631;-70
2023/03/25 07:44:00;;;;;;;0.50;0.50;;;;;;;13.81;68.15;100088.13;5043708;28;20554;-70
2023/03/25 07:46:26;;;;;;;0.30;0.30;;;;;;;13.81;68.37;100080.84;5037644;28;20108;-71
2023/03/25 07:48:51;;;;;;;0.20;0.20;;;;;;;13.64;69.51;100079.41;5042270;28;20485;-71
2023/03/25 07:51:16;;;;;;;0.20;0.20;;;;;;;13.57;69.90;100082.34;5045334;28;20064;-71
2023/03/25 07:53:44;;;;;;;0.25;0.25;;;;;;;14.60;66.25;100081.28;5044481;28;20037;-71
2023/03/25 07:56:10;;;;;;;0.30;0.30;;;;;;;14.63;66.23;100074.53;5048200;28;20056;-69
2023/03/25 07:58:35;;;;;;;0.32;0.32;;;;;;;14.18;67.38;100085.25;5044976;28;20223;-71
2023/03/25 08:01:01;;;;;;;0.10;0.10;;;;;;;14.32;67.49;100072.88;5042000;28;20033;-70
2023/03/25 08:03:27;;;;;;;0.20;0.20;;;;;;;14.31;67.54;100080.16;5052886;28;20136;-69
2023/03/25 08:05:52;;;;;;;0.20;0.20;;;;;;;13.55;70.72;100081.78;5050626;28;20111;-69
2023/03/25 08:08:18;;;;;;;0.28;0.28;;;;;;;14.23;68.80;100090.69;5054632;28;20117;-69
2023/03/25 08:10:46;;;;;;;0.30;0.30;;;;;;;13.77;69.18;100111.31;5050121;28;20112;-70
2023/03/25 08:13:12;;;;;;;0.17;0.17;;;;;;;13.88;69.21;100094.06;5049679;28;20064;-70
2023/03/25 08:15:38;;;;;;;0.30;0.30;;;;;;;14.40;67.78;100102.09;5048920;28;20025;-71
2023/03/25 08:18:05;;;;;;;0.40;0.40;;;;;;;13.55;70.54;100094.47;5049385;28;20041;-70
2023/03/25 08:20:31;;;;;;;0.20;0.20;;;;;;;14.14;68.29;100093.06;5048690;28;20063;-68
2023/03/25 08:22:57;;;;;;;0.20;0.20;;;;;;;14.10;68.67;100092.00;5047509;28;20071;-68
2023/03/25 08:25:23;;;;;;;0.20;0.20;;;;;;;13.98;68.90;100097.63;5049435;28;20104;-72
2023/03/25 08:27:48;;;;;;;0.35;0.35;;;;;;;14.16;67.96;100090.91;5049304;28;20076;-70
2023/03/25 08:30:14;;;;;;;0.30;0.30;;;;;;;15.17;65.66;100094.53;5048435;28;20527;-71
2023/03/25 08:32:40;;;;;;;0.30;0.30;;;;;;;14.84;66.91;100089.66;5048878;28;20482;-70
2023/03/25 08:35:06;;;;;;;0.30;0.30;;;;;;;14.61;67.19;100092.91;5048075;28;20123;-72
2023/03/25 08:37:36;;;;;;;0.30;0.30;;;;;;;14.86;66.87;100084.78;5048844;28;20037;-70
2023/03/25 08:40:06;;;;;;;0.25;0.25;;;;;;;15.04;67.28;100092.34;5048670;28;20029;-70
2023/03/25 08:42:31;;;;;;;0.20;0.20;;;;;;;13.66;71.15;100102.34;5047820;28;20067;-70
2023/03/25 08:44:57;;;;;;;0.30;0.30;;;;;;;14.13;70.61;100090.66;5049099;28;20521;-71
2023/03/25 08:47:22;;;;;;;0.20;0.20;;;;;;;14.67;70.37;100098.06;5048706;28;20396;-70
2023/03/25 08:49:48;;;;;;;0.20;0.20;;;;;;;14.77;69.50;100092.66;5048189;28;20052;-70
2023/03/25 08:52:13;;;;;;;0.30;0.30;;;;;;;14.86;68.76;100099.13;5049185;28;20103;-69
2023/03/25 08:54:38;;;;;;;0.20;0.20;;;;;;;14.53;70.20;100098.84;5048562;28;20492;-70
2023/03/25 08:57:04;;;;;;;0.30;0.30;;;;;;;14.68;69.65;100096.97;5048285;28;20086;-72
2023/03/25 08:59:30;;;;;;;0.30;0.30;;;;;;;14.69;69.09;100090.50;5048786;28;20048;-71
2023/03/25 09:01:55;;;;;;;0.20;0.20;;;;;;;14.20;69.95;100113.63;5048649;28;20124;-71
2023/03/25 09:04:20;;;;;;;0.25;0.25;;;;;;;14.15;70.94;100112.81;5044289;28;20112;-70
2023/03/25 09:06:46;;;;;;;0.30;0.30;;;;;;;14.09;71.80;100106.59;5049256;28;20124;-70
2023/03/25 09:09:11;;;;;;;0.35;0.35;;;;;;;14.18;71.80;100114.97;5051287;28;20168;-71
2023/03/25 09:11:37;;;;;;;0.20;0.20;;;;;;;13.27;74.46;100124.56;5046040;28;20029;-71
2023/03/25 09:14:03;;;;;;;0.30;0.30;;;;;;;13.60;73.71;100125.00;5049916;28;20056;-72
2023/03/25 09:16:30;;;;;;;0.30;0.30;;;;;;;14.39;71.19;100108.56;5050467;28;20112;-72
2023/03/25 09:18:55;;;;;;;0.30;0.30;;;;;;;13.98;71.95;100121.13;5042179;28;20489;-70
2023/03/25 09:21:20;;;;;;;0.30;0.30;;;;;;;13.94;73.16;100118.16;5051921;28;20103;-71
2023/03/25 09:23:46;;;;;;;0.30;0.30;;;;;;;14.05;72.50;100116.31;5053971;28;20037;-72
2023/03/25 09:26:11;;;;;;;0.30;0.30;;;;;;;13.88;73.96;100131.88;5049966;28;20124;-71
2023/03/25 09:28:36;;;;;;;0.20;0.20;;;;;;;14.33;71.76;100115.06;5043592;28;20048;-71
2023/03/25 09:31:02;;;;;;;0.30;0.30;;;;;;;14.46;72.46;100131.56;5048840;28;20109;-71
2023/03/25 09:33:27;;;;;;;0.22;0.22;;;;;;;14.31;71.24;100122.63;5041614;28;20037;-71
2023/03/25 09:35:54;;;;;;;0.45;0.45;;;;;;;14.05;72.95;100129.81;5047598;28;20405;-71
2023/03/25 09:38:19;;;;;;;0.22;0.22;;;;;;;13.83;73.92;100119.19;5053970;28;20028;-71
2023/03/25 09:40:45;;;;;;;0.38;0.38;;;;;;;14.63;71.55;100117.78;5053754;28;20028;-71
2023/03/25 09:43:25;;;;;;;0.30;0.30;;;;;;;14.69;71.16;100130.22;5053810;28;20446;-72
2023/03/25 09:45:52;;;;;;;0.38;0.38;;;;;;;13.91;72.16;100136.78;5054442;28;20507;-72
2023/03/25 09:48:30;;;;;;;0.20;0.20;;;;;;;14.03;73.27;100135.44;5050829;28;20048;-71
2023/03/25 09:51:05;;;;;;;0.40;0.40;;;;;;;14.02;71.67;100139.25;5048520;28;20036;-71
2023/03/25 09:53:40;;;;;;;0.30;0.30;;;;;;;14.98;69.25;100125.13;5056075;28;20040;-70
2023/03/25 09:56:29;;;;;;;0.30;0.30;;;;;;;14.28;72.15;100126.66;5055413;28;20099;-71
2023/03/25 09:59:02;;;;;;;0.40;0.40;;;;;;;14.44;71.06;100132.91;5050400;28;20507;-73
2023/03/25 10:01:45;;;;;;;0.20;0.20;;;;;;;14.46;69.96;100122.66;5059361;28;21304;-75
2023/03/25 10:04:17;;;;;;;0.20;0.20;;;;;;;14.46;71.86;100128.06;5049685;28;20097;-72
2023/03/25 10:06:59;;;;;;;0.40;0.40;;;;;;;15.35;70.42;100131.81;5047986;28;20075;-71
2023/03/25 10:09:34;;;;;;;0.35;0.35;;;;;;;14.40;70.53;100132.63;5038703;28;20056;-70
2023/03/25 10:12:31;;;;;;;0.40;0.40;;;;;;;15.24;68.67;100142.94;5051790;28;20120;-71
2023/03/25 10:15:23;;;;;;;0.22;0.22;;;;;;;14.24;72.22;100143.63;5051173;28;20036;-69
2023/03/25 10:18:04;;;;;;;0.30;0.30;;;;;;;14.33;72.13;100139.38;5057413;28;20469;-73
2023/03/25 10:20:35;;;;;;;0.20;0.20;;;;;;;14.71;71.94;100137.00;5057578;28;20028;-72
2023/03/25 10:23:11;;;;;;;;;;;;;;;15.06;69.60;100138.91;5052297;28;20044;-71
2023/03/25 10:25:41;;;;;;;0.30;0.30;;;;;;;14.17;72.19;100157.38;5056608;28;19924;-71
2023/03/25 10:28:16;;;;;;;0.30;0.30;;;;;;;14.95;70.26;100154.34;5055397;28;20033;-72
2023/03/25 10:30:51;;;;;;;0.20;0.20;;;;;;;14.53;70.63;100156.44;5052201;28;20028;-73
2023/03/25 10:33:36;;;;;;;0.30;0.30;;;;;;;14.71;69.93;100147.00;5047384;28;20029;-70
2023/03/25 10:36:05;;;;;;;0.20;0.20;;;;;;;15.13;68.23;100138.63;5032806;28;20067;-69
2023/03/25 10:38:34;;;;;;;0.20;0.20;;;;;;;15.39;67.94;100146.44;5046102;28;20049;-70
2023/03/25 10:41:24;;;;;;;0.20;0.20;;;;;;;15.25;67.87;100141.88;5053228;28;20038;-72
2023/03/25 10:43:50;;;;;;;0.40;0.40;;;;;;;15.28;67.29;100146.72;5052748;28;20021;-69
2023/03/25 10:46:31;;;;;;;0.30;0.30;;;;;;;15.43;65.24;100144.84;5049228;28;20024;-71
2023/03/25 10:48:57;;;;;;;0.20;0.20;;;;;;;14.48;66.21;100140.22;5049224;28;20516;-70
2023/03/25 10:51:27;;;;;;;0.17;0.17;;;;;;;15.30;64.30;100137.25;5050650;28;20100;-70
2023/03/25 10:53:53;;;;;;;0.30;0.30;;;;;;;15.33;64.38;100150.22;5050902;28;20485;-70
2023/03/25 10:56:47;;;;;;;0.20;0.20;;;;;;;15.65;64.01;100139.91;5039267;28;20044;-71
2023/03/25 10:59:24;;;;;;;0.25;0.25;;;;;;;15.71;63.28;100152.38;5040495;28;20048;-71
2023/03/25 11:01:52;;;;;;;0.22;0.22;;;;;;;15.43;64.23;100157.59;5040156;28;20074;-70
2023/03/25 11:04:20;;;;;;;0.30;0.30;;;;;;;15.15;65.80;100155.41;5048034;28;20052;-70
2023/03/25 11:06:58;;;;;;;0.40;0.40;;;;;;;14.49;67.21;100168.88;5047395;28;20128;-69
2023/03/25 11:09:29;;;;;;;0.20;0.20;;;;;;;14.99;65.86;100154.59;5048142;28;20148;-70
2023/03/25 11:11:58;;;;;;;0.40;0.40;;;;;;;15.11;64.62;100154.34;5046568;28;20442;-70
2023/03/25 11:14:27;;;;;;;0.30;0.30;;;;;;;14.72;65.87;100151.34;5048148;28;20128;-71
2023/03/25 11:17:01;;;;;;;0.30;0.30;;;;;;;15.07;66.33;100159.47;5047456;28;20037;-71
2023/03/25 11:19:29;;;;;;;0.40;0.40;;;;;;;15.23;65.28;100163.00;5047984;28;20110;-72
2023/03/25 11:22:00;;;;;;;0.20;0.20;;;;;;;14.85;64.79;100156.22;5047773;28;20091;-70
2023/03/25 11:24:31;;;;;;;0.22;0.22;;;;;;;15.15;63.04;100150.81;5047995;28;20033;-70
2023/03/25 11:26:56;;;;;;;0.20;0.20;;;;;;;14.81;62.29;100147.84;5046067;28;20033;-71
2023/03/25 11:29:25;;;;;;;0.30;0.30;;;;;;;14.96;62.62;100152.44;5047670;28;20029;-70
2023/03/25 11:32:12;;;;;;;0.10;0.10;;;;;;;15.94;60.77;100150.13;5047756;28;20107;-72
2023/03/25 11:34:40;;;;;;;0.30;0.30;;;;;;;15.40;62.42;100149.97;5047346;28;20025;-71
2023/03/25 11:37:15;;;;;;;0.20;0.20;;;;;;;15.90;61.08;100154.47;5048711;28;20033;-70